Time;durP1;ratioP1;P1;durP2;ratioP2;P2;SDS_P1;SDS_P2;PMS_P1;PMS_P2;Temp;Humidity;BMP_temperature;BMP_pressure;BME280_temperature;BME280_humidity;BME280_pressure;Samples;Min_cycle;Max_cycle;Signal;HPM_P1;HPM_P2
2022/10/14 00:01:05;;;;;;;392.97;184.03;;;;;;;;;;4999895;28;20299;-55
2022/10/14 00:03:31;;;;;;;414.20;191.93;;;;;;;;;;5001760;28;20217;-55
2022/10/14 00:05:57;;;;;;;347.33;165.33;;;;;;;;;;4996790;28;20730;-55
2022/10/14 00:08:23;;;;;;;311.43;155.40;;;;;;;;;;5001842;28;20224;-55
2022/10/14 00:10:49;;;;;;;369.93;171.83;;;;;;;;;;5003282;28;20577;-55
2022/10/14 00:13:15;;;;;;;362.07;172.80;;;;;;;;;;5007187;28;20219;-55
2022/10/14 00:15:41;;;;;;;450.23;203.90;;;;;;;;;;5001651;28;20217;-55
2022/10/14 00:18:08;;;;;;;338.27;163.70;;;;;;;;;;4998784;28;20232;-55
2022/10/14 00:20:34;;;;;;;437.43;198.67;;;;;;;;;;4990265;28;20560;-55
2022/10/14 00:23:00;;;;;;;374.20;183.37;;;;;;;;;;4998196;28;20264;-55
2022/10/14 00:25:27;;;;;;;429.43;199.80;;;;;;;;;;5003316;28;20217;-55
2022/10/14 00:27:53;;;;;;;304.13;152.87;;;;;;;;;;5004765;28;20217;-56
2022/10/14 00:30:19;;;;;;;257.67;131.00;;;;;;;;;;5003638;28;20220;-55
2022/10/14 00:32:45;;;;;;;436.77;204.47;;;;;;;;;;4992229;28;20221;-55
2022/10/14 00:35:11;;;;;;;297.70;148.77;;;;;;;;;;5027740;28;20209;-55
2022/10/14 00:37:37;;;;;;;438.70;201.20;;;;;;;;;;5030132;28;20603;-55
2022/10/14 00:40:03;;;;;;;301.23;148.17;;;;;;;;;;5001816;28;20212;-55
2022/10/14 00:42:32;;;;;;;347.07;166.83;;;;;;;;;;4998269;28;20261;-55
2022/10/14 00:45:00;;;;;;;311.33;150.93;;;;;;;;;;4993679;28;20228;-55
2022/10/14 00:47:26;;;;;;;397.20;189.43;;;;;;;;;;5003274;28;20827;-55
2022/10/14 00:49:52;;;;;;;353.53;169.60;;;;;;;;;;5002392;28;20183;-55
2022/10/14 00:52:19;;;;;;;295.40;146.67;;;;;;;;;;5003771;28;20737;-55
2022/10/14 00:54:50;;;;;;;442.37;201.83;;;;;;;;;;5001061;28;20217;-55
2022/10/14 00:57:17;;;;;;;311.47;154.80;;;;;;;;;;5000362;28;20205;-55
2022/10/14 00:59:43;;;;;;;410.50;194.00;;;;;;;;;;4994521;28;20232;-55
2022/10/14 01:02:09;;;;;;;308.90;149.00;;;;;;;;;;5005279;28;20189;-55
2022/10/14 01:04:36;;;;;;;383.73;168.90;;;;;;;;;;4999427;28;20193;-55
2022/10/14 01:07:21;;;;;;;421.97;187.63;;;;;;;;;;5000161;28;20214;-55
2022/10/14 01:09:47;;;;;;;411.10;184.80;;;;;;;;;;4996997;28;20216;-55
2022/10/14 01:12:31;;;;;;;462.17;206.67;;;;;;;;;;5002660;28;20265;-55
2022/10/14 01:15:03;;;;;;;502.53;218.40;;;;;;;;;;4991719;28;20276;-55
2022/10/14 01:17:46;;;;;;;337.93;154.57;;;;;;;;;;5001848;28;20259;-55
2022/10/14 01:20:23;;;;;;;405.67;183.07;;;;;;;;;;4996074;28;20219;-55
2022/10/14 01:22:58;;;;;;;339.97;153.03;;;;;;;;;;4995037;28;20209;-55
2022/10/14 01:25:34;;;;;;;398.50;177.13;;;;;;;;;;4994933;28;20247;-55
2022/10/14 01:28:00;;;;;;;372.33;166.47;;;;;;;;;;5012453;28;20219;-55
2022/10/14 01:30:29;;;;;;;470.07;212.53;;;;;;;;;;5000852;28;20228;-55
2022/10/14 01:33:14;;;;;;;307.13;144.53;;;;;;;;;;5003804;28;20216;-55
2022/10/14 01:35:58;;;;;;;512.37;223.73;;;;;;;;;;5000905;28;20274;-55
2022/10/14 01:38:29;;;;;;;396.57;179.53;;;;;;;;;;4998685;28;20678;-55
2022/10/14 01:41:02;;;;;;;420.80;186.67;;;;;;;;;;4998728;28;20202;-55
2022/10/14 01:43:29;;;;;;;407.97;181.87;;;;;;;;;;4994509;28;20632;-55
2022/10/14 01:45:56;;;;;;;409.23;183.37;;;;;;;;;;4996435;28;20244;-55
2022/10/14 01:48:24;;;;;;;397.63;182.50;;;;;;;;;;5002987;28;20636;-55
2022/10/14 01:50:51;;;;;;;503.97;224.33;;;;;;;;;;5002314;28;20224;-55
2022/10/14 01:53:20;;;;;;;291.80;138.30;;;;;;;;;;4994874;28;20300;-55
2022/10/14 01:55:47;;;;;;;426.03;191.03;;;;;;;;;;4997746;28;20557;-55
2022/10/14 01:58:14;;;;;;;344.03;159.03;;;;;;;;;;5033966;28;20212;-55
2022/10/14 02:00:40;;;;;;;323.87;155.27;;;;;;;;;;5005670;28;20267;-55
2022/10/14 02:03:06;;;;;;;347.27;159.87;;;;;;;;;;5010706;28;20224;-55
2022/10/14 02:05:44;;;;;;;320.60;147.10;;;;;;;;;;5008557;28;20232;-55
2022/10/14 02:08:20;;;;;;;493.10;222.07;;;;;;;;;;5001505;28;20756;-55
2022/10/14 02:10:52;;;;;;;370.47;168.57;;;;;;;;;;4998175;28;20173;-55
2022/10/14 02:13:28;;;;;;;509.10;220.07;;;;;;;;;;5006048;28;20213;-55
2022/10/14 02:15:59;;;;;;;371.90;171.50;;;;;;;;;;5003501;28;20248;-55
2022/10/14 02:18:45;;;;;;;422.80;188.70;;;;;;;;;;4991629;28;20292;-55
2022/10/14 02:21:11;;;;;;;380.07;169.83;;;;;;;;;;5000663;28;20235;-55
2022/10/14 02:23:39;;;;;;;391.13;177.67;;;;;;;;;;4999594;28;20464;-55
2022/10/14 02:26:05;;;;;;;359.80;164.80;;;;;;;;;;5001901;28;20315;-55
2022/10/14 02:28:32;;;;;;;454.77;206.20;;;;;;;;;;5006851;28;20639;-55
2022/10/14 02:31:01;;;;;;;309.90;144.67;;;;;;;;;;4995182;28;20228;-55
2022/10/14 02:33:32;;;;;;;453.50;209.27;;;;;;;;;;5006663;28;20705;-55
2022/10/14 02:35:58;;;;;;;278.97;133.43;;;;;;;;;;5027870;28;20519;-55
2022/10/14 02:38:25;;;;;;;316.70;148.27;;;;;;;;;;5007270;28;20558;-55
2022/10/14 02:40:51;;;;;;;354.10;163.73;;;;;;;;;;5005598;28;20181;-55
2022/10/14 02:43:17;;;;;;;386.73;175.57;;;;;;;;;;4998739;28;20216;-55
2022/10/14 02:45:44;;;;;;;476.63;204.67;;;;;;;;;;4995709;28;20301;-55
2022/10/14 02:48:10;;;;;;;311.23;143.17;;;;;;;;;;4994473;28;20224;-55
2022/10/14 02:50:36;;;;;;;484.70;209.57;;;;;;;;;;4994323;28;20237;-55
2022/10/14 02:53:03;;;;;;;347.17;157.07;;;;;;;;;;5000103;28;20253;-55
2022/10/14 02:55:29;;;;;;;409.87;184.93;;;;;;;;;;5006941;28;20539;-55
2022/10/14 02:57:55;;;;;;;317.83;147.93;;;;;;;;;;4996901;28;20407;-55
2022/10/14 03:00:21;;;;;;;334.23;158.10;;;;;;;;;;5004439;28;20685;-55
2022/10/14 03:02:47;;;;;;;415.90;185.90;;;;;;;;;;5003077;28;20229;-55
2022/10/14 03:05:13;;;;;;;313.37;145.17;;;;;;;;;;5002180;28;20221;-55
2022/10/14 03:07:39;;;;;;;428.93;193.20;;;;;;;;;;4998389;28;20189;-55
2022/10/14 03:10:05;;;;;;;326.03;149.20;;;;;;;;;;4999723;28;20785;-55
2022/10/14 03:12:31;;;;;;;393.27;179.50;;;;;;;;;;5003897;28;20564;-55
2022/10/14 03:14:56;;;;;;;399.77;178.67;;;;;;;;;;4996535;28;20232;-55
2022/10/14 03:17:22;;;;;;;382.27;173.97;;;;;;;;;;4999084;28;20232;-55
2022/10/14 03:19:48;;;;;;;382.23;174.40;;;;;;;;;;5000061;28;20278;-55
2022/10/14 03:22:14;;;;;;;378.10;169.77;;;;;;;;;;4997442;28;20229;-55
2022/10/14 03:24:40;;;;;;;458.00;204.07;;;;;;;;;;5006979;28;20213;-55
2022/10/14 03:27:06;;;;;;;364.03;165.07;;;;;;;;;;5007227;28;20216;-55
2022/10/14 03:29:33;;;;;;;378.27;170.63;;;;;;;;;;5000827;28;20300;-55
2022/10/14 03:31:59;;;;;;;345.33;154.97;;;;;;;;;;5017082;28;20216;-55
2022/10/14 03:34:25;;;;;;;269.50;129.37;;;;;;;;;;4998345;28;20217;-55
2022/10/14 03:36:50;;;;;;;414.47;185.03;;;;;;;;;;5003906;28;20360;-55
2022/10/14 03:39:16;;;;;;;341.57;157.93;;;;;;;;;;4993219;28;20682;-55
2022/10/14 03:41:42;;;;;;;430.20;189.17;;;;;;;;;;4985224;28;20259;-55
2022/10/14 03:44:08;;;;;;;420.07;186.87;;;;;;;;;;5005400;28;20372;-55
2022/10/14 03:46:35;;;;;;;409.50;177.60;;;;;;;;;;4983525;28;20218;-55
2022/10/14 03:49:00;;;;;;;466.43;202.57;;;;;;;;;;4983154;28;20204;-55
2022/10/14 03:51:26;;;;;;;350.03;161.00;;;;;;;;;;4979710;28;20308;-55
2022/10/14 03:53:52;;;;;;;323.77;151.20;;;;;;;;;;4982683;28;20229;-55
2022/10/14 03:56:18;;;;;;;405.70;182.40;;;;;;;;;;4988497;28;20208;-55
2022/10/14 03:58:44;;;;;;;420.00;188.70;;;;;;;;;;4988777;28;20685;-55
2022/10/14 04:01:10;;;;;;;457.43;202.10;;;;;;;;;;4978580;28;20245;-55
2022/10/14 04:03:36;;;;;;;399.77;175.60;;;;;;;;;;4981063;28;20209;-56
2022/10/14 04:06:02;;;;;;;511.60;224.20;;;;;;;;;;4975495;28;20218;-55
2022/10/14 04:08:28;;;;;;;357.90;168.50;;;;;;;;;;4976072;28;20195;-56
2022/10/14 04:10:55;;;;;;;457.03;215.63;;;;;;;;;;4988101;28;20173;-55
2022/10/14 04:13:21;;;;;;;346.17;156.13;;;;;;;;;;4975131;28;20205;-55
2022/10/14 04:15:48;;;;;;;364.70;166.30;;;;;;;;;;4980496;28;20236;-56
2022/10/14 04:18:14;;;;;;;446.60;196.77;;;;;;;;;;4995714;28;20213;-56
2022/10/14 04:20:40;;;;;;;336.50;152.97;;;;;;;;;;4999549;28;20215;-55
2022/10/14 04:23:06;;;;;;;486.33;213.77;;;;;;;;;;5001397;28;20731;-58
2022/10/14 04:25:32;;;;;;;291.97;137.23;;;;;;;;;;4997284;28;20209;-57
2022/10/14 04:27:59;;;;;;;381.73;175.20;;;;;;;;;;4992840;28;20212;-56
2022/10/14 04:30:25;;;;;;;365.77;169.87;;;;;;;;;;4999394;28;20221;-56
2022/10/14 04:32:50;;;;;;;444.70;200.33;;;;;;;;;;5001089;28;20264;-56
2022/10/14 04:35:16;;;;;;;407.53;186.83;;;;;;;;;;5003441;28;20204;-56
2022/10/14 04:37:42;;;;;;;356.03;166.87;;;;;;;;;;5004310;28;20217;-54
2022/10/14 04:40:08;;;;;;;496.10;222.60;;;;;;;;;;5002028;28;20243;-56
2022/10/14 04:42:34;;;;;;;282.57;137.47;;;;;;;;;;5000982;28;20228;-54
2022/10/14 04:45:00;;;;;;;481.10;217.53;;;;;;;;;;4991491;28;20224;-55
2022/10/14 04:47:26;;;;;;;299.73;142.67;;;;;;;;;;5019703;28;20277;-55
2022/10/14 04:49:52;;;;;;;279.60;132.50;;;;;;;;;;5034573;28;20314;-55
2022/10/14 04:52:18;;;;;;;382.57;183.13;;;;;;;;;;4997064;28;20559;-55
2022/10/14 04:54:44;;;;;;;326.67;153.73;;;;;;;;;;5003404;28;20244;-55
2022/10/14 04:57:11;;;;;;;502.40;225.60;;;;;;;;;;5005826;28;20267;-55
2022/10/14 04:59:37;;;;;;;310.93;144.90;;;;;;;;;;4993673;28;20312;-55
2022/10/14 05:02:03;;;;;;;501.77;224.27;;;;;;;;;;4999720;28;20284;-55
2022/10/14 05:04:29;;;;;;;408.47;185.10;;;;;;;;;;4984576;28;20725;-55
2022/10/14 05:06:55;;;;;;;401.73;179.23;;;;;;;;;;4976007;28;20229;-55
2022/10/14 05:09:21;;;;;;;319.70;148.43;;;;;;;;;;4995863;28;20213;-55
2022/10/14 05:11:47;;;;;;;338.37;158.83;;;;;;;;;;5010959;28;20902;-54
2022/10/14 05:14:13;;;;;;;468.30;216.73;;;;;;;;;;5003466;28;20169;-55
2022/10/14 05:16:38;;;;;;;364.00;161.63;;;;;;;;;;4999159;28;20225;-56
2022/10/14 05:19:04;;;;;;;511.77;235.13;;;;;;;;;;4975902;28;20242;-56
2022/10/14 05:21:30;;;;;;;349.17;160.77;;;;;;;;;;4978942;28;20911;-55
2022/10/14 05:23:56;;;;;;;368.63;171.57;;;;;;;;;;4967724;28;20308;-55
2022/10/14 05:26:22;;;;;;;414.87;189.17;;;;;;;;;;5000422;28;20205;-56
2022/10/14 05:28:51;;;;;;;468.33;206.77;;;;;;;;;;4986867;28;20697;-56
2022/10/14 05:31:16;;;;;;;435.83;199.17;;;;;;;;;;4979990;28;20224;-55
2022/10/14 05:33:42;;;;;;;363.73;165.53;;;;;;;;;;4979942;28;20217;-56
2022/10/14 05:36:08;;;;;;;472.77;217.07;;;;;;;;;;4985031;28;20225;-56
2022/10/14 05:38:34;;;;;;;390.60;179.57;;;;;;;;;;4988573;28;20241;-55
2022/10/14 05:41:00;;;;;;;401.80;187.23;;;;;;;;;;4986727;28;20240;-55
2022/10/14 05:43:26;;;;;;;426.77;190.80;;;;;;;;;;4984978;28;20721;-55
2022/10/14 05:45:52;;;;;;;312.27;148.50;;;;;;;;;;4983247;28;20228;-55
2022/10/14 05:48:18;;;;;;;444.80;210.27;;;;;;;;;;4982267;28;20593;-55
2022/10/14 05:50:44;;;;;;;307.00;146.47;;;;;;;;;;4974982;28;20694;-59
2022/10/14 05:53:11;;;;;;;478.87;225.10;;;;;;;;;;4987820;28;20334;-55
2022/10/14 05:55:37;;;;;;;402.23;186.50;;;;;;;;;;5020200;28;20244;-55
2022/10/14 05:58:03;;;;;;;481.10;221.57;;;;;;;;;;4983418;28;20271;-55
2022/10/14 06:00:29;;;;;;;501.07;230.57;;;;;;;;;;4982317;28;20217;-56
2022/10/14 06:02:57;;;;;;;407.67;196.53;;;;;;;;;;4980701;28;20217;-55
2022/10/14 06:05:23;;;;;;;334.93;160.70;;;;;;;;;;4974684;28;20221;-55
2022/10/14 06:07:49;;;;;;;347.43;165.10;;;;;;;;;;4974344;28;20198;-55
2022/10/14 06:10:15;;;;;;;476.40;211.80;;;;;;;;;;4971974;28;20316;-55
2022/10/14 06:12:41;;;;;;;430.23;202.83;;;;;;;;;;4978491;28;20610;-54
2022/10/14 06:15:07;;;;;;;484.50;236.03;;;;;;;;;;4964505;28;20225;-57
2022/10/14 06:17:33;;;;;;;545.73;256.77;;;;;;;;;;4934011;28;20968;-56
2022/10/14 06:19:59;;;;;;;350.37;176.30;;;;;;;;;;4956541;28;20204;-57
2022/10/14 06:22:25;;;;;;;453.43;215.77;;;;;;;;;;4958901;28;20225;-57
2022/10/14 06:24:51;;;;;;;521.33;243.83;;;;;;;;;;4957046;28;20329;-57
2022/10/14 06:27:17;;;;;;;512.30;236.90;;;;;;;;;;4964721;28;20244;-58
2022/10/14 06:29:43;;;;;;;433.93;198.43;;;;;;;;;;4967920;28;20301;-58
2022/10/14 06:32:09;;;;;;;487.03;229.97;;;;;;;;;;4961254;28;20194;-56
2022/10/14 06:34:35;;;;;;;504.53;235.23;;;;;;;;;;4959977;28;20228;-57
2022/10/14 06:37:01;;;;;;;363.17;177.03;;;;;;;;;;4964701;28;20700;-56
2022/10/14 06:39:27;;;;;;;451.83;211.27;;;;;;;;;;4964787;28;20315;-55
2022/10/14 06:41:53;;;;;;;494.67;241.20;;;;;;;;;;4954972;28;20237;-56
2022/10/14 06:44:20;;;;;;;455.37;213.83;;;;;;;;;;4972085;28;20194;-55
2022/10/14 06:46:45;;;;;;;404.63;188.40;;;;;;;;;;4974440;28;20612;-55
2022/10/14 06:49:12;;;;;;;377.27;178.47;;;;;;;;;;4967521;28;20316;-55
2022/10/14 06:51:38;;;;;;;514.60;243.23;;;;;;;;;;4964037;28;20228;-55
2022/10/14 06:54:04;;;;;;;447.37;205.00;;;;;;;;;;4968262;28;20210;-55
2022/10/14 06:56:30;;;;;;;589.37;274.13;;;;;;;;;;4964894;28;20646;-54
2022/10/14 06:58:56;;;;;;;480.30;220.47;;;;;;;;;;4969690;28;20181;-54
2022/10/14 07:01:23;;;;;;;318.10;152.20;;;;;;;;;;4969570;28;20328;-55
2022/10/14 07:03:49;;;;;;;418.20;193.73;;;;;;;;;;4969963;28;20214;-56
2022/10/14 07:06:15;;;;;;;525.53;267.17;;;;;;;;;;4954185;28;20781;-56
2022/10/14 07:08:41;;;;;;;566.93;265.60;;;;;;;;;;4962058;28;20209;-56
2022/10/14 07:11:07;;;;;;;467.60;223.30;;;;;;;;;;4960883;28;20185;-56
2022/10/14 07:13:33;;;;;;;525.07;241.60;;;;;;;;;;4991893;28;20236;-56
2022/10/14 07:15:59;;;;;;;433.03;196.13;;;;;;;;;;4970298;28;20218;-56
2022/10/14 07:18:25;;;;;;;404.70;188.20;;;;;;;;;;4969004;28;20217;-56
2022/10/14 07:20:51;;;;;;;403.67;184.47;;;;;;;;;;4966811;28;20217;-56
2022/10/14 07:23:17;;;;;;;385.20;174.67;;;;;;;;;;4964456;28;20187;-57
2022/10/14 07:25:43;;;;;;;574.07;262.87;;;;;;;;;;4958378;28;20263;-57
2022/10/14 07:28:09;;;;;;;573.07;261.63;;;;;;;;;;4959314;28;20366;-57
2022/10/14 07:30:35;;;;;;;484.00;224.13;;;;;;;;;;4957351;28;20316;-57
2022/10/14 07:33:01;;;;;;;460.17;208.87;;;;;;;;;;4963832;28;20210;-57
2022/10/14 07:35:28;;;;;;;462.80;230.53;;;;;;;;;;4963626;28;20536;-56
2022/10/14 07:37:54;;;;;;;428.63;199.07;;;;;;;;;;4960947;28;20272;-56
2022/10/14 07:40:20;;;;;;;541.50;255.07;;;;;;;;;;4968546;28;20218;-56
2022/10/14 07:42:46;;;;;;;494.63;232.70;;;;;;;;;;4959223;28;20316;-56
2022/10/14 07:45:15;;;;;;;401.30;186.83;;;;;;;;;;4965676;28;20304;-56
2022/10/14 07:47:42;;;;;;;479.57;223.30;;;;;;;;;;4967452;28;20233;-57
2022/10/14 07:50:08;;;;;;;457.07;213.93;;;;;;;;;;4967270;28;20190;-55
2022/10/14 07:52:34;;;;;;;445.20;209.40;;;;;;;;;;4972882;28;20277;-57
2022/10/14 07:55:00;;;;;;;442.33;212.60;;;;;;;;;;4963795;28;20221;-55
2022/10/14 07:57:27;;;;;;;347.83;175.07;;;;;;;;;;4971550;28;20237;-55
2022/10/14 07:59:53;;;;;;;465.43;227.63;;;;;;;;;;4968594;28;20301;-56
2022/10/14 08:02:19;;;;;;;326.27;153.40;;;;;;;;;;4968538;28;20285;-56
2022/10/14 08:04:45;;;;;;;510.33;244.30;;;;;;;;;;4964301;28;20222;-56
2022/10/14 08:07:14;;;;;;;470.57;225.13;;;;;;;;;;4962843;28;20305;-57
2022/10/14 08:09:40;;;;;;;468.53;217.47;;;;;;;;;;4972507;28;20217;-57
2022/10/14 08:12:07;;;;;;;503.70;238.97;;;;;;;;;;4965448;28;20221;-57
2022/10/14 08:14:32;;;;;;;437.63;213.17;;;;;;;;;;4963493;28;20385;-57
2022/10/14 08:16:58;;;;;;;308.80;148.13;;;;;;;;;;4970201;28;20210;-56
2022/10/14 08:19:24;;;;;;;347.73;170.57;;;;;;;;;;4973010;28;20232;-56
2022/10/14 08:21:52;;;;;;;465.20;221.57;;;;;;;;;;4966390;28;20227;-58
2022/10/14 08:24:18;;;;;;;449.67;213.77;;;;;;;;;;4969836;28;20267;-56
2022/10/14 08:26:51;;;;;;;482.87;221.77;;;;;;;;;;4966512;28;20230;-56
2022/10/14 08:29:17;;;;;;;476.87;219.83;;;;;;;;;;4962573;28;20305;-56
2022/10/14 08:31:43;;;;;;;371.67;174.20;;;;;;;;;;4967988;28;20218;-56
2022/10/14 08:34:10;;;;;;;532.80;249.70;;;;;;;;;;4954204;28;20220;-55
2022/10/14 08:36:36;;;;;;;555.73;273.00;;;;;;;;;;4955356;28;20218;-55
2022/10/14 08:39:04;;;;;;;523.87;245.47;;;;;;;;;;4951253;28;20218;-55
2022/10/14 08:41:36;;;;;;;394.37;178.00;;;;;;;;;;4965598;28;20233;-55
2022/10/14 08:44:18;;;;;;;516.67;237.53;;;;;;;;;;4963464;28;20216;-58
2022/10/14 08:46:55;;;;;;;479.63;239.90;;;;;;;;;;4959449;28;20295;-56
2022/10/14 08:49:33;;;;;;;536.43;262.50;;;;;;;;;;4950439;28;20225;-56
2022/10/14 08:52:07;;;;;;;407.17;196.63;;;;;;;;;;4956549;28;20214;-56
2022/10/14 08:54:36;;;;;;;363.73;180.73;;;;;;;;;;4959484;28;20574;-56
2022/10/14 08:57:03;;;;;;;337.83;164.17;;;;;;;;;;4961898;28;20210;-56
2022/10/14 08:59:29;;;;;;;504.00;244.17;;;;;;;;;;4968743;28;20224;-56
2022/10/14 09:01:57;;;;;;;457.73;211.80;;;;;;;;;;4964784;28;20821;-56
2022/10/14 09:04:23;;;;;;;517.50;251.90;;;;;;;;;;4957217;28;20284;-56
2022/10/14 09:06:50;;;;;;;489.57;239.97;;;;;;;;;;4961162;28;20640;-56
2022/10/14 09:09:35;;;;;;;379.00;192.67;;;;;;;;;;4959578;28;20336;-56
2022/10/14 09:12:04;;;;;;;455.67;215.73;;;;;;;;;;4967281;28;20214;-56
2022/10/14 09:14:35;;;;;;;498.47;238.83;;;;;;;;;;4963319;28;20217;-56
2022/10/14 09:17:17;;;;;;;484.00;238.27;;;;;;;;;;4960348;28;20675;-56
2022/10/14 09:19:47;;;;;;;470.87;233.00;;;;;;;;;;4960300;28;20607;-56
2022/10/14 09:22:14;;;;;;;448.47;215.30;;;;;;;;;;4967138;28;20799;-55
2022/10/14 09:24:40;;;;;;;568.80;279.00;;;;;;;;;;4963162;28;20210;-57
2022/10/14 09:27:22;;;;;;;496.80;245.23;;;;;;;;;;4958707;28;20574;-56
2022/10/14 09:29:51;;;;;;;438.50;224.23;;;;;;;;;;4963791;28;20616;-56
2022/10/14 09:32:20;;;;;;;378.37;187.17;;;;;;;;;;4976241;28;20278;-56
2022/10/14 09:34:47;;;;;;;370.23;181.13;;;;;;;;;;4978425;28;20260;-56
2022/10/14 09:37:22;;;;;;;477.30;223.03;;;;;;;;;;4980611;28;20573;-56
2022/10/14 09:39:48;;;;;;;515.70;258.77;;;;;;;;;;4977247;28;20215;-56
2022/10/14 09:42:32;;;;;;;471.00;241.53;;;;;;;;;;4976776;28;20248;-56
2022/10/14 09:45:05;;;;;;;403.03;197.97;;;;;;;;;;4987210;28;20216;-55
2022/10/14 09:47:31;;;;;;;484.67;229.77;;;;;;;;;;4983475;28;20252;-56
2022/10/14 09:49:59;;;;;;;473.60;234.27;;;;;;;;;;4989661;28;20231;-56
2022/10/14 09:52:26;;;;;;;484.50;244.50;;;;;;;;;;4976104;28;20219;-56
2022/10/14 09:54:56;;;;;;;392.90;194.87;;;;;;;;;;4982682;28;20219;-56
2022/10/14 09:57:22;;;;;;;410.33;200.00;;;;;;;;;;4977696;28;20232;-56
2022/10/14 09:59:51;;;;;;;456.07;227.43;;;;;;;;;;4973620;28;20287;-56
2022/10/14 10:02:22;;;;;;;508.67;263.37;;;;;;;;;;4974313;28;20527;-56
2022/10/14 10:04:48;;;;;;;545.80;275.17;;;;;;;;;;4981455;28;20782;-55
2022/10/14 10:07:40;;;;;;;439.03;221.10;;;;;;;;;;4988988;28;20213;-54
2022/10/14 10:10:17;;;;;;;392.83;197.87;;;;;;;;;;4985586;28;20249;-54
2022/10/14 10:12:46;;;;;;;454.63;224.77;;;;;;;;;;4984013;28;20220;-54
2022/10/14 10:15:17;;;;;;;447.53;222.80;;;;;;;;;;4990421;28;20220;-55
2022/10/14 10:17:44;;;;;;;496.20;243.53;;;;;;;;;;4992434;28;20693;-55
2022/10/14 10:20:27;;;;;;;451.97;226.07;;;;;;;;;;4995382;28;20178;-55
2022/10/14 10:22:53;;;;;;;452.73;227.00;;;;;;;;;;5001080;28;20231;-55
2022/10/14 10:25:20;;;;;;;505.70;249.60;;;;;;;;;;4999125;28;20221;-55
2022/10/14 10:27:47;;;;;;;437.30;215.90;;;;;;;;;;4997683;28;20336;-55
2022/10/14 10:30:26;;;;;;;432.80;220.70;;;;;;;;;;5008079;28;20307;-55
2022/10/14 10:32:59;;;;;;;474.03;237.63;;;;;;;;;;5000254;28;20307;-55
2022/10/14 10:35:25;;;;;;;531.50;259.77;;;;;;;;;;5004442;28;20392;-55
2022/10/14 10:38:08;;;;;;;447.90;224.93;;;;;;;;;;4992734;28;20200;-56
2022/10/14 10:40:54;;;;;;;460.93;224.63;;;;;;;;;;4986154;28;20245;-56
2022/10/14 10:43:26;;;;;;;375.47;184.10;;;;;;;;;;4997007;28;20749;-56
2022/10/14 10:46:00;;;;;;;456.95;219.70;;;;;;;;;;4991770;28;20223;-56
2022/10/14 10:48:41;;;;;;;545.97;264.50;;;;;;;;;;4990270;28;20283;-56
2022/10/14 10:51:21;;;;;;;409.40;206.03;;;;;;;;;;4992960;28;20224;-56
2022/10/14 10:54:05;;;;;;;427.13;219.30;;;;;;;;;;4992852;28;20220;-56
2022/10/14 10:56:39;;;;;;;498.47;248.47;;;;;;;;;;4988363;28;20225;-56
2022/10/14 10:59:24;;;;;;;453.97;220.50;;;;;;;;;;4989639;28;20190;-56
2022/10/14 11:02:08;;;;;;;400.47;199.27;;;;;;;;;;4987895;28;20229;-56
2022/10/14 11:04:41;;;;;;;502.77;258.40;;;;;;;;;;4988200;28;20225;-56
2022/10/14 11:13:26;;;;;;;504.60;256.03;;;;;;;;;;4989536;28;20216;-56
2022/10/14 11:16:01;;;;;;;495.53;245.97;;;;;;;;;;4983722;28;20224;-56
2022/10/14 11:18:44;;;;;;;451.13;224.97;;;;;;;;;;4982150;28;20247;-56
2022/10/14 11:21:29;;;;;;;410.07;215.00;;;;;;;;;;4994386;28;20636;-56
2022/10/14 11:23:59;;;;;;;465.60;235.13;;;;;;;;;;4987284;28;20807;-56
2022/10/14 11:26:41;;;;;;;520.60;255.53;;;;;;;;;;4991369;28;20237;-56
2022/10/14 11:29:27;;;;;;;403.10;203.73;;;;;;;;;;4995828;28;20872;-56
2022/10/14 11:32:05;;;;;;;491.67;254.10;;;;;;;;;;4988808;28;20647;-55
2022/10/14 11:34:31;;;;;;;505.77;256.77;;;;;;;;;;4991772;28;20213;-56
2022/10/14 11:37:06;;;;;;;421.90;222.50;;;;;;;;;;4987994;28;20240;-55
2022/10/14 11:39:38;;;;;;;399.80;214.23;;;;;;;;;;5028094;28;20260;-55
2022/10/14 11:42:12;;;;;;;458.90;235.53;;;;;;;;;;4987119;28;20994;-55
2022/10/14 11:44:39;;;;;;;535.30;279.27;;;;;;;;;;4999219;28;20220;-55
2022/10/14 11:47:10;;;;;;;520.20;274.97;;;;;;;;;;4992479;28;20649;-56
2022/10/14 11:49:40;;;;;;;440.53;227.40;;;;;;;;;;4983204;28;20362;-56
2022/10/14 11:52:07;;;;;;;496.90;256.80;;;;;;;;;;4984224;28;20222;-55
2022/10/14 11:54:36;;;;;;;511.27;272.03;;;;;;;;;;4988922;28;20220;-55
2022/10/14 11:57:05;;;;;;;485.90;264.40;;;;;;;;;;4987659;28;20213;-56
2022/10/14 11:59:49;;;;;;;523.83;287.70;;;;;;;;;;4991231;28;20478;-55
2022/10/14 12:02:27;;;;;;;400.57;220.03;;;;;;;;;;4993248;28;20299;-55
2022/10/14 12:05:22;;;;;;;361.03;205.13;;;;;;;;;;4987659;28;20268;-55
2022/10/14 12:08:07;;;;;;;423.27;225.77;;;;;;;;;;4992869;28;20768;-55
2022/10/14 12:10:35;;;;;;;592.17;310.03;;;;;;;;;;4983336;28;20223;-55
2022/10/14 12:13:06;;;;;;;482.90;263.27;;;;;;;;;;4987354;28;20212;-55
2022/10/14 12:15:33;;;;;;;620.00;325.90;;;;;;;;;;4984794;28;20548;-55
2022/10/14 12:18:04;;;;;;;524.00;263.53;;;;;;;;;;4986822;28;20311;-55
2022/10/14 12:20:30;;;;;;;424.60;229.77;;;;;;;;;;4993373;28;20686;-55
2022/10/14 12:22:57;;;;;;;529.77;264.83;;;;;;;;;;4986654;28;20226;-55
2022/10/14 12:25:24;;;;;;;562.77;302.97;;;;;;;;;;4985927;28;20283;-55
2022/10/14 12:27:51;;;;;;;499.53;250.63;;;;;;;;;;4983687;28;20228;-55
2022/10/14 12:30:35;;;;;;;524.40;275.10;;;;;;;;;;4986433;28;20483;-55
2022/10/14 12:33:03;;;;;;;434.90;222.53;;;;;;;;;;4990379;28;20209;-55
2022/10/14 12:35:44;;;;;;;437.17;226.70;;;;;;;;;;4986511;28;20232;-55
2022/10/14 12:38:10;;;;;;;439.17;222.20;;;;;;;;;;5024279;28;20554;-55
2022/10/14 12:40:36;;;;;;;445.70;228.40;;;;;;;;;;4997301;28;20764;-55
2022/10/14 12:43:04;;;;;;;462.40;225.83;;;;;;;;;;4993478;28;20303;-55
2022/10/14 12:45:31;;;;;;;425.73;231.37;;;;;;;;;;4988763;28;20229;-56
2022/10/14 12:48:12;;;;;;;524.83;270.40;;;;;;;;;;4989177;28;20212;-54
2022/10/14 12:50:40;;;;;;;471.67;232.60;;;;;;;;;;4987076;28;20216;-55
2022/10/14 12:53:32;;;;;;;576.17;282.60;;;;;;;;;;4989221;28;20285;-55
2022/10/14 12:56:00;;;;;;;543.67;275.33;;;;;;;;;;4979548;28;20226;-57
2022/10/14 12:58:36;;;;;;;415.45;219.95;;;;;;;;;;4967612;28;20349;-54
2022/10/14 13:01:05;;;;;;;368.07;196.30;;;;;;;;;;4968973;28;20213;-54
2022/10/14 13:03:32;;;;;;;515.23;271.03;;;;;;;;;;4971367;28;20635;-55
2022/10/14 13:06:17;;;;;;;493.08;259.55;;;;;;;;;;4974850;28;20257;-55
2022/10/14 13:09:03;;;;;;;546.93;278.00;;;;;;;;;;4976531;28;20306;-55
2022/10/14 13:11:29;;;;;;;432.00;215.70;;;;;;;;;;4975747;28;20367;-55
2022/10/14 13:13:59;;;;;;;415.17;214.20;;;;;;;;;;4979771;28;20179;-55
2022/10/14 13:16:25;;;;;;;616.93;341.97;;;;;;;;;;4969337;28;20225;-55
2022/10/14 13:18:53;;;;;;;557.22;280.77;;;;;;;;;;4971029;28;20559;-55
2022/10/14 13:21:30;;;;;;;529.10;288.50;;;;;;;;;;4955618;28;20218;-55
2022/10/14 13:23:56;;;;;;;433.10;228.33;;;;;;;;;;4967037;28;20241;-55
2022/10/14 13:26:43;;;;;;;428.60;225.60;;;;;;;;;;4977905;28;20201;-55
2022/10/14 13:29:16;;;;;;;543.60;275.67;;;;;;;;;;4987635;28;20607;-55
2022/10/14 13:32:01;;;;;;;465.33;242.53;;;;;;;;;;4984484;28;20241;-55
2022/10/14 13:34:36;;;;;;;427.60;228.27;;;;;;;;;;4974393;28;20222;-55
2022/10/14 13:37:05;;;;;;;476.17;254.80;;;;;;;;;;4965523;28;20575;-56
2022/10/14 13:39:31;;;;;;;415.73;226.60;;;;;;;;;;4977474;28;20592;-55
2022/10/14 13:41:58;;;;;;;499.77;248.37;;;;;;;;;;4982294;28;20592;-55
2022/10/14 13:44:25;;;;;;;526.93;273.87;;;;;;;;;;4966923;28;20186;-55
2022/10/14 13:46:51;;;;;;;399.93;202.70;;;;;;;;;;4964279;28;20384;-55
2022/10/14 13:49:19;;;;;;;510.20;267.57;;;;;;;;;;4962802;28;20304;-55
2022/10/14 13:51:52;;;;;;;464.57;247.03;;;;;;;;;;4971011;28;20221;-56
2022/10/14 13:54:18;;;;;;;513.33;253.87;;;;;;;;;;4967254;28;20260;-55
2022/10/14 13:56:56;;;;;;;560.73;278.47;;;;;;;;;;4973722;28;20233;-55
2022/10/14 13:59:23;;;;;;;520.43;266.07;;;;;;;;;;4973602;28;20188;-56
2022/10/14 14:01:53;;;;;;;550.83;307.97;;;;;;;;;;4964055;28;20205;-55
2022/10/14 14:04:23;;;;;;;527.93;269.07;;;;;;;;;;4963212;28;20221;-56
2022/10/14 14:06:50;;;;;;;596.33;315.10;;;;;;;;;;4957193;28;20221;-55
2022/10/14 14:09:19;;;;;;;459.07;234.87;;;;;;;;;;4962080;28;20740;-55